Terminal Aerodrome Forecast
Issued by NWS

Home | Current Version | Previous Version | Text Only | Print | Product List | Glossary On
Versions: 1 2 3 4 5 6 7 8 9 10 11 12 13 14 15 16 17 18 19 20 21 22
826
FTUS42 KJAX 251720
TAFVQQ
TAF
KVQQ 251720Z 2518/2618 15008G12KT P6SM BKN045 BKN060
     FM252200 12010G15KT P6SM SCT040
     FM260000 VRB03KT P6SM FEW035 BKN250
     FM260900 00000KT 4SM BR BKN050 BKN100
     FM261300 15005KT P6SM BKN100=

USA.gov is the U.S. government's official web portal to all federal, state and local government web resources and services.